Date,TemperatureHighF,TemperatureAvgF,TemperatureLowF,DewpointHighF,DewpointAvgF,DewpointLowF,HumidityHigh,HumidityAvg,HumidityLow,PressureMaxIn,PressureMinIn,WindSpeedMaxMPH,WindSpeedAvgMPH,GustSpeedMaxMPH,PrecipitationSumIn
2013-1-1,55.3,40.3,28.2,31.0,26.1,20.0,89,61,27,30.38,30.21,8,1,12,0.00
2013-1-2,60.3,46.7,31.1,28.0,23.7,20.0,84,46,21,30.24,30.07,15,4,23,0.00
2013-1-3,58.7,47.2,36.5,29.0,26.2,21.0,64,45,29,30.25,30.08,17,8,27,0.00
2013-1-4,57.5,47.0,40.8,28.0,25.2,22.0,56,44,28,30.35,30.25,16,7,29,0.00
2013-1-5,64.6,47.3,29.9,28.0,22.8,13.0,82,43,14,30.42,30.29,7,1,15,0.00
2013-1-6,65.4,48.6,33.2,26.0,19.5,12.0,59,35,13,30.29,30.01,9,2,11,0.00
2013-1-7,59.4,43.9,31.6,29.0,26.4,24.0,77,53,28,30.02,29.89,9,2,14,0.00
2013-1-8,62.5,44.9,30.3,30.0,27.3,26.0,86,54,26,30.21,30.00,4,1,7,0.00
2013-1-9,70.6,51.3,32.4,29.0,18.8,8.0,73,37,9,30.30,30.11,17,3,25,0.00
2013-1-10,68.0,52.4,35.7,34.0,21.9,19.0,56,33,16,30.13,29.86,10,2,21,0.00
2013-1-11,53.4,39.5,29.8,35.0,23.6,10.0,93,58,24,30.14,29.92,20,4,26,0.01
2013-1-12,47.4,34.0,22.5,17.0,11.3,1.0,73,43,16,30.26,30.10,9,2,14,0.00
2013-1-13,49.8,33.6,21.5,14.0,8.4,-4.0,70,39,11,30.28,30.14,6,1,11,0.00
2013-1-14,45.0,31.9,21.1,14.0,7.6,2.0,66,39,19,30.38,30.20,9,2,15,0.00
2013-1-15,48.6,31.7,16.4,9.0,2.8,-6.0,65,34,11,30.53,30.38,6,1,10,0.00
2013-1-16,60.9,43.1,22.8,12.0,5.3,3.0,48,24,10,30.52,30.33,16,4,22,0.00
2013-1-17,67.1,55.8,38.6,15.0,11.2,7.0,32,18,11,30.32,30.19,22,9,30,0.00
2013-1-18,74.7,59.4,42.9,20.0,15.6,10.0,36,19,9,30.25,30.11,13,4,21,0.00
2013-1-19,79.7,55.7,35.7,24.0,19.7,15.0,49,28,9,30.29,30.15,6,1,9,0.00
2013-1-20,80.0,57.7,40.3,36.0,25.9,22.0,51,32,15,30.22,30.04,5,1,8,0.00
2013-1-21,82.7,59.7,41.7,32.0,29.5,27.0,60,35,16,30.15,30.02,6,1,12,0.00
2013-1-22,82.9,62.0,42.2,34.0,29.2,25.0,63,33,12,30.20,30.09,5,1,9,0.00
2013-1-23,83.4,62.1,44.2,31.0,28.4,26.0,51,31,14,30.24,30.12,5,1,11,0.00
2013-1-24,63.6,58.5,53.2,52.0,41.5,30.0,75,55,33,30.25,30.16,8,1,9,0.02
2013-1-25,78.9,64.1,51.0,49.0,46.2,43.0,80,56,29,30.22,30.00,3,1,7,0.00
2013-1-26,69.2,59.7,52.2,58.0,51.7,46.0,95,77,47,30.03,29.91,12,2,26,0.49
2013-1-27,66.0,57.7,49.3,53.0,49.0,46.0,97,75,50,30.07,29.96,7,1,9,0.00
2013-1-28,56.3,51.1,44.2,49.0,41.0,30.0,89,69,51,30.06,29.95,16,5,28,0.08
2013-1-29,52.0,43.6,36.4,35.0,26.5,19.0,79,55,28,30.30,30.07,12,5,20,0.00
2013-1-30,59.9,44.7,29.4,29.0,24.2,17.0,85,49,19,30.46,30.30,8,2,11,0.00
2013-1-31,64.7,46.4,30.9,35.0,28.9,24.0,81,54,26,30.37,30.20,7,1,10,0.00
2013-2-1,74.7,52.3,34.7,33.0,28.7,20.0,80,48,13,30.30,30.20,8,1,8,0.00
2013-2-2,78.6,56.3,37.0,37.0,28.9,18.0,71,42,11,30.32,30.16,5,1,9,0.00
2013-2-3,71.0,58.2,48.4,38.0,34.4,26.0,66,44,22,30.19,29.99,3,1,7,0.00
2013-2-4,71.9,56.9,46.0,40.0,38.0,37.0,76,52,28,30.08,29.96,5,1,10,0.00
2013-2-5,75.6,57.9,40.6,42.0,39.2,35.0,86,54,23,30.08,29.94,8,2,12,0.00
2013-2-6,71.3,56.7,43.1,43.0,38.2,34.0,83,54,27,30.08,29.94,12,2,13,0.00
2013-2-7,72.1,56.1,41.3,40.0,34.5,26.0,80,49,19,30.16,30.00,5,1,10,0.00
2013-2-8,68.6,55.5,41.3,33.0,25.7,13.0,70,37,12,30.01,29.83,11,3,16,0.00
2013-2-9,53.8,44.6,36.0,37.0,28.9,22.0,93,57,30,30.13,29.84,18,3,21,0.05
2013-2-10,58.2,43.4,28.8,29.0,23.4,16.0,85,51,20,30.16,30.03,8,1,13,0.00
2013-2-11,52.1,38.5,29.6,36.0,29.1,22.0,94,72,37,30.29,30.07,15,2,18,0.17
2013-2-12,53.9,41.0,29.9,35.0,31.3,27.0,96,72,38,30.41,30.29,6,1,10,0.00
2013-2-13,62.5,45.0,28.0,30.0,26.2,20.0,90,54,20,30.32,30.18,8,1,9,0.00
2013-2-14,68.0,48.8,31.2,30.0,26.9,21.0,82,48,17,30.25,30.11,7,1,10,0.00
2013-2-15,72.2,54.7,38.9,34.0,22.5,10.0,71,36,9,30.30,30.20,17,3,24,0.00
2013-2-16,73.5,62.1,48.7,17.0,10.0,1.0,28,14,6,30.31,30.03,26,7,31,0.00
2013-2-17,73.4,57.5,38.6,19.0,12.1,-2.0,41,19,5,30.02,29.87,13,3,20,0.00
2013-2-18,72.1,55.1,39.0,24.0,17.9,9.0,49,27,9,30.11,29.97,5,1,9,0.00
2013-2-19,72.0,57.2,40.8,30.0,17.2,6.0,47,25,8,29.99,29.75,13,3,19,0.00
2013-2-20,51.7,40.9,32.1,38.0,32.6,30.0,95,74,44,30.06,29.73,12,3,22,0.19
2013-2-21,55.3,42.3,31.9,38.0,33.0,30.0,97,73,43,30.19,30.06,8,2,11,0.27
2013-2-22,56.8,45.0,35.8,38.0,32.8,27.0,93,65,36,30.24,30.09,10,2,14,0.00
2013-2-23,66.7,48.8,30.6,32.0,26.8,18.0,87,49,16,30.24,29.93,6,1,12,0.00
2013-2-24,50.6,44.6,34.9,32.0,19.7,5.0,73,42,16,30.19,29.87,22,6,31,0.00
2013-2-25,59.5,44.2,27.5,24.0,17.9,14.0,66,38,19,30.33,30.14,7,2,11,0.00
2013-2-26,64.8,47.3,30.4,26.0,19.9,12.0,74,39,15,30.17,30.03,10,2,16,0.00
2013-2-27,65.3,50.0,35.7,20.0,12.1,2.0,54,25,9,30.28,30.17,10,3,14,0.00
2013-2-28,69.2,50.1,31.9,19.0,14.2,5.0,55,28,9,30.40,30.27,10,2,13,0.00
2013-3-1,75.8,54.9,34.8,25.0,17.8,11.0,51,27,9,30.41,30.26,7,2,13,0.00
2013-3-2,85.5,62.1,39.9,29.0,22.8,2.0,60,29,4,30.36,30.13,5,1,9,0.00
2013-3-3,81.1,64.4,45.1,32.0,23.2,10.0,55,25,7,30.15,29.94,9,2,16,0.00
2013-3-4,73.3,64.0,50.7,31.0,26.2,16.0,46,25,13,30.08,29.89,13,4,24,0.00
2013-3-5,80.9,62.2,45.0,33.0,28.6,20.0,59,33,11,30.15,30.00,8,2,13,0.00
2013-3-6,82.7,66.1,51.3,37.0,30.1,21.0,52,30,12,30.05,29.89,8,2,12,0.00
2013-3-7,80.7,64.0,45.4,33.0,25.2,10.0,56,27,7,29.98,29.88,11,2,17,0.00
2013-3-8,67.6,58.3,43.5,45.0,36.8,27.0,67,46,28,30.00,29.76,24,7,40,0.00
2013-3-9,53.9,47.3,42.0,38.0,35.1,32.0,80,64,50,30.17,30.00,10,3,15,0.01
2013-3-10,66.8,52.3,40.1,38.0,33.3,25.0,83,53,23,30.24,30.12,7,1,14,0.00
2013-3-11,74.7,55.9,36.3,33.0,29.9,25.0,73,42,17,30.24,30.07,9,2,12,0.00
2013-3-12,83.3,61.3,39.5,37.0,30.6,21.0,70,37,10,30.15,30.02,9,1,13,0.00
2013-3-13,90.4,68.9,44.7,36.0,26.4,13.0,60,28,6,30.16,30.01,8,2,15,0.00
2013-3-14,91.5,72.6,50.9,32.0,19.4,-9.0,45,19,2,30.12,29.98,10,2,20,0.00
2013-3-15,94.6,72.8,51.4,28.0,19.6,-7.0,36,18,2,30.04,29.87,13,2,22,0.00
2013-3-16,89.7,72.4,51.6,30.0,18.0,-3.0,37,16,3,29.91,29.71,11,3,20,0.00
2013-3-17,83.7,68.2,49.7,25.0,20.2,13.0,34,18,7,29.93,29.78,19,4,26,0.00
2013-3-18,82.7,67.3,50.6,33.0,23.6,12.0,40,22,7,30.01,29.90,15,2,15,0.00
2013-3-19,80.3,66.3,51.1,36.0,28.3,23.0,45,26,12,30.05,29.94,13,3,18,0.00
2013-3-20,83.5,68.0,51.8,33.0,28.2,23.0,43,25,12,30.06,29.88,8,2,12,0.00
2013-3-21,77.7,66.3,53.6,35.0,31.0,28.0,45,28,19,29.87,29.73,8,2,11,0.00
2013-3-22,80.8,69.4,55.8,33.0,30.0,25.0,38,24,14,29.81,29.67,15,4,21,0.00
2013-3-23,75.3,62.1,50.7,33.0,18.5,-6.0,45,23,4,30.01,29.81,16,3,20,0.00
2013-3-24,76.8,60.6,42.3,16.0,3.5,-11.0,29,12,3,30.06,29.89,11,2,17,0.00
2013-3-25,81.2,64.1,43.6,18.0,12.2,7.0,30,15,6,30.04,29.91,8,2,13,0.00
2013-3-26,87.1,68.4,49.6,23.0,12.9,0.0,33,15,4,30.00,29.82,10,2,14,0.00
2013-3-27,85.2,69.9,51.1,24.0,17.1,9.0,29,15,6,30.00,29.88,15,3,19,0.00
2013-3-28,85.2,70.3,53.1,33.0,20.5,13.0,29,16,7,30.05,29.94,9,2,15,0.00
2013-3-29,86.3,69.9,53.7,33.0,20.9,9.0,30,17,6,30.08,29.97,8,2,14,0.00
2013-3-30,83.6,69.7,54.4,27.0,21.3,11.0,28,17,7,30.06,29.91,9,2,14,0.00
2013-3-31,86.1,68.8,48.7,31.0,25.8,20.0,43,22,10,30.05,29.89,7,2,13,0.00
2013-4-1,83.2,68.8,52.2,35.0,27.9,21.0,39,23,14,30.01,29.86,12,2,15,0.00
2013-4-2,78.2,65.2,48.8,25.0,20.6,13.0,38,20,9,29.98,29.87,14,3,21,0.00
2013-4-3,82.7,65.6,49.1,28.0,24.6,20.0,37,23,11,30.06,29.95,9,2,14,0.00
2013-4-4,90.1,70.1,48.3,31.0,21.7,2.0,46,21,4,30.08,29.90,8,2,12,0.00
2013-4-5,88.0,73.2,56.0,31.0,26.0,22.0,33,18,10,29.97,29.82,13,3,18,0.00
2013-4-6,85.4,72.2,53.9,35.0,28.3,23.0,36,21,11,29.97,29.80,13,3,16,0.00
2013-4-7,86.3,70.2,54.4,36.0,30.8,21.0,48,26,9,29.89,29.73,10,2,15,0.00
2013-4-8,82.6,69.0,46.8,42.0,33.3,24.0,82,29,14,29.75,29.39,22,6,30,0.01
2013-4-9,64.7,54.6,45.2,46.0,33.3,22.0,94,52,21,29.95,29.58,15,4,21,0.07
2013-4-10,69.0,57.5,44.4,32.0,27.5,22.0,58,35,17,30.05,29.95,15,3,19,0.00
2013-4-11,80.0,62.0,42.4,31.0,26.8,19.0,62,31,12,30.05,29.80,12,2,16,0.00
2013-4-12,82.5,66.1,50.7,31.0,24.6,15.0,39,23,8,29.84,29.74,11,2,13,0.00
2013-4-13,85.4,70.7,49.6,29.0,23.1,16.0,42,19,8,29.88,29.72,11,3,17,0.00
2013-4-14,85.5,71.0,56.4,36.0,29.1,19.0,37,23,9,29.81,29.66,22,4,23,0.00
2013-4-15,86.5,73.9,61.1,38.0,29.8,18.0,36,22,8,29.79,29.67,18,5,23,0.00
2013-4-16,85.5,72.5,58.7,39.0,30.6,22.0,38,23,11,29.81,29.67,16,5,31,0.00
2013-4-17,68.1,60.7,54.4,40.0,24.4,7.0,51,28,13,30.04,29.76,17,6,24,0.00
2013-4-18,72.1,57.4,41.0,14.0,9.5,3.0,31,17,7,30.18,30.04,12,2,18,0.00
2013-4-19,81.3,64.2,45.2,13.0,-3.3,-29.0,26,9,1,30.19,29.97,16,4,24,0.00
2013-4-20,84.8,67.0,45.2,19.0,7.9,-2.0,21,11,4,30.01,29.89,12,3,21,0.00
2013-4-21,89.6,71.5,50.5,23.0,13.6,4.0,28,13,4,30.06,29.91,14,2,15,0.00
2013-4-22,92.2,75.0,55.0,24.0,12.8,-9.0,25,11,2,29.98,29.75,12,2,16,0.00
2013-4-23,89.1,73.7,53.0,23.0,16.5,9.0,26,13,5,29.88,29.76,13,3,19,0.00
2013-4-24,91.1,76.0,56.2,29.0,20.5,8.0,28,14,5,29.91,29.79,10,2,15,0.00
2013-4-25,84.3,73.3,58.5,33.0,23.9,6.0,30,17,5,30.01,29.83,22,5,27,0.00
2013-4-26,87.3,69.9,49.7,32.0,25.1,15.0,41,21,7,30.11,29.99,10,2,17,0.00
2013-4-27,91.0,74.5,53.7,31.0,21.0,4.0,34,16,4,30.07,29.87,10,2,13,0.00
2013-4-28,95.8,78.1,57.2,28.0,13.7,0.0,27,11,3,29.90,29.72,11,2,15,0.00
2013-4-29,97.4,78.9,55.3,20.0,8.8,-20.0,21,9,1,29.82,29.63,12,2,17,0.00
2013-4-30,95.5,80.8,60.3,23.0,13.8,1.0,22,9,3,29.77,29.65,11,3,17,0.00
2013-5-1,90.7,75.8,56.5,28.0,16.9,-1.0,28,13,3,29.96,29.77,12,2,21,0.00
2013-5-2,90.7,76.0,59.3,27.0,14.8,-4.0,25,12,3,30.07,29.95,19,6,31,0.00
2013-5-3,87.5,73.2,61.9,21.0,14.0,2.0,20,12,4,30.03,29.78,21,9,39,0.00
2013-5-4,92.1,77.2,58.2,24.0,14.9,3.0,22,11,4,29.81,29.67,12,3,20,0.00
2013-5-5,89.5,77.7,64.2,39.0,26.4,14.0,34,16,6,29.90,29.72,16,4,24,0.00
2013-5-6,83.9,71.4,58.0,53.0,40.4,30.0,79,37,15,29.96,29.85,8,3,17,0.01
2013-5-7,84.1,70.5,58.7,44.0,34.2,19.0,46,29,10,29.98,29.84,13,4,21,0.00
2013-5-8,82.1,68.2,54.4,42.0,36.4,29.0,56,34,16,30.03,29.91,9,2,15,0.00
2013-5-9,83.7,70.7,55.8,43.0,32.9,15.0,54,29,8,30.00,29.87,9,2,14,0.00
2013-5-10,88.4,72.1,56.8,39.0,33.8,27.0,41,26,11,30.05,29.90,15,3,22,0.00
2013-5-11,86.8,75.8,61.4,38.0,34.2,27.0,37,23,12,30.07,29.98,22,7,27,0.00
2013-5-12,91.2,79.5,67.3,38.0,31.9,24.0,31,19,9,30.11,29.91,18,6,23,0.00
2013-5-13,94.8,81.8,63.4,33.0,23.8,9.0,27,13,5,30.04,29.86,16,5,22,0.00
2013-5-14,96.8,84.1,67.8,39.0,28.6,14.0,29,15,7,29.93,29.77,11,3,17,0.00
2013-5-15,97.3,83.1,68.1,36.0,31.2,25.0,27,17,8,29.96,29.77,16,4,22,0.00
2013-5-16,98.1,84.0,68.4,32.0,23.9,9.0,22,13,4,29.88,29.70,12,3,17,0.00
2013-5-17,94.6,80.3,60.9,37.0,23.7,6.0,31,15,4,29.87,29.74,16,4,19,0.00
2013-5-18,91.1,78.3,60.4,39.0,25.9,14.0,31,16,6,29.90,29.78,14,4,19,0.00
2013-5-19,90.6,77.5,63.2,43.0,34.8,23.0,43,24,9,29.89,29.74,14,3,17,0.00
2013-5-20,91.7,78.3,60.3,39.0,27.8,16.0,40,18,7,29.87,29.76,13,4,22,0.00
2013-5-21,94.4,78.7,58.2,24.0,14.2,-7.0,24,11,2,29.89,29.73,9,2,15,0.00
2013-5-22,98.6,82.0,61.0,28.0,18.2,7.0,21,11,4,29.79,29.62,11,3,15,0.00
2013-5-23,98.2,83.0,62.4,36.0,24.4,4.0,29,14,3,29.81,29.70,11,3,18,0.00
2013-5-24,98.0,82.4,63.3,43.0,22.8,-19.0,33,15,1,29.88,29.76,12,3,15,0.00
2013-5-25,97.6,82.0,62.2,38.0,20.1,-19.0,36,15,1,29.90,29.79,11,4,17,0.00
2013-5-26,95.8,80.2,61.7,29.0,8.6,-99.9,24,10,1,29.93,29.81,13,3,18,0.00
2013-5-27,97.1,79.7,60.5,26.0,7.0,-99.9,20,9,1,29.87,29.68,12,2,18,0.00
2013-5-28,94.4,79.8,60.0,33.0,20.3,2.0,25,13,3,29.74,29.56,14,4,22,0.00
2013-5-29,93.0,80.1,63.6,50.0,33.3,28.0,36,20,10,29.73,29.61,12,4,19,0.00
2013-5-30,96.5,83.7,69.1,53.0,42.6,31.0,52,28,10,29.79,29.68,11,3,17,0.00
2013-5-31,98.1,84.7,69.3,58.0,45.3,30.0,59,30,9,29.82,29.70,13,3,16,0.00
2013-6-1,105.8,88.3,67.6,40.0,32.3,9.0,32,16,3,29.79,29.63,7,2,12,0.00
2013-6-2,106.2,90.5,70.2,42.0,34.5,20.0,31,16,5,29.74,29.58,13,3,18,0.00
2013-6-3,102.3,88.2,66.5,38.0,24.8,-2.0,33,13,2,29.77,29.66,13,3,18,0.00
2013-6-4,101.7,87.9,71.5,44.0,32.6,20.0,26,15,6,29.80,29.69,11,3,17,0.00
2013-6-5,100.4,85.5,68.9,37.0,21.1,-4.0,27,12,2,29.83,29.69,10,2,17,0.00
2013-6-6,103.3,87.0,64.8,28.0,24.2,20.0,22,11,5,29.79,29.64,10,2,16,0.00
2013-6-7,107.2,89.2,68.9,31.0,24.1,11.0,22,11,3,29.75,29.57,10,2,16,0.00
2013-6-8,104.5,90.5,74.2,39.0,22.2,7.0,18,10,3,29.76,29.66,13,4,21,0.00
2013-6-9,103.3,89.1,76.0,38.0,23.2,-4.0,24,12,2,29.83,29.70,17,4,22,0.00
2013-6-10,106.5,90.5,69.5,35.0,22.5,0.0,21,10,2,29.85,29.69,12,3,17,0.00
2013-6-11,107.3,91.0,71.1,32.0,18.8,-13.0,21,10,1,29.82,29.69,15,3,19,0.00
2013-6-12,107.8,91.7,71.9,32.0,27.3,22.0,19,11,5,29.87,29.70,14,3,22,0.00
2013-6-13,102.7,90.5,76.4,49.0,41.2,32.0,31,19,10,29.85,29.68,16,4,21,0.00
2013-6-14,102.6,90.2,76.7,54.0,48.4,41.0,42,25,14,29.80,29.63,9,3,16,0.00
2013-6-15,100.6,86.8,74.8,67.0,54.1,43.0,76,34,19,29.83,29.70,11,2,19,0.24
2013-6-16,103.4,88.0,69.9,63.0,47.1,30.0,71,31,9,29.88,29.73,10,2,15,0.00
2013-6-17,103.4,88.1,70.0,43.0,29.9,20.0,31,14,6,29.88,29.71,9,2,14,0.00
2013-6-18,105.5,88.4,66.7,36.0,-11.6,-99.9,26,9,1,29.81,29.66,10,2,16,0.00
2013-6-19,105.4,88.4,67.3,31.0,12.9,-17.0,16,7,1,29.74,29.61,12,3,23,0.00
2013-6-20,104.0,88.5,70.0,36.0,12.1,-99.9,26,10,1,29.77,29.66,15,3,18,0.00
2013-6-21,104.5,89.1,69.5,39.0,20.3,-16.0,23,11,1,29.81,29.68,14,3,20,0.00
2013-6-22,103.5,88.3,66.5,34.0,20.4,-15.0,25,11,1,29.82,29.66,15,3,18,0.00
2013-6-23,102.6,87.6,66.5,35.0,22.9,3.0,26,12,3,29.78,29.62,14,4,24,0.00
2013-6-24,102.2,87.2,67.6,38.0,25.8,3.0,24,13,3,29.80,29.69,15,4,21,0.00
2013-6-25,101.9,86.4,66.4,42.0,20.4,-6.0,30,12,2,29.89,29.77,9,2,13,0.00
2013-6-26,102.6,88.0,72.7,27.0,18.1,-16.0,17,9,1,29.97,29.83,11,3,15,0.00
2013-6-27,105.5,89.0,71.9,41.0,31.1,19.0,21,13,7,30.00,29.80,17,3,22,0.00
2013-6-28,109.7,94.0,73.0,39.0,33.3,28.0,23,13,6,29.88,29.70,9,2,11,0.00
2013-6-29,112.0,97.7,83.4,44.0,37.8,32.0,19,13,7,29.78,29.61,17,3,25,0.00
2013-6-30,109.9,94.5,79.6,63.0,48.6,41.0,56,23,10,29.87,29.56,15,4,26,0.00
2013-7-1,107.0,91.2,77.7,60.0,56.3,51.0,52,33,16,29.81,29.68,16,3,21,0.00
2013-7-2,101.9,89.1,72.3,64.0,57.3,52.0,75,37,20,29.96,29.73,27,5,39,0.03
2013-7-3,105.4,92.8,77.9,56.0,50.6,44.0,45,25,15,29.83,29.60,12,4,22,0.00
2013-7-4,104.8,93.8,81.9,59.0,53.1,48.0,43,27,15,29.76,29.59,12,4,22,0.00
2013-7-5,99.6,84.5,74.0,68.0,61.6,55.0,78,49,27,29.79,29.63,10,2,22,0.01
2013-7-6,105.3,85.6,70.6,64.0,60.0,53.0,72,46,18,29.79,29.61,10,2,15,0.00
2013-7-7,108.0,88.6,75.8,70.0,60.2,52.0,67,41,17,29.76,29.60,20,3,29,0.26
2013-7-8,105.0,90.8,80.3,62.0,58.5,54.0,51,35,19,29.83,29.72,13,3,24,0.00
2013-7-9,99.7,89.1,77.4,70.0,64.3,58.0,75,46,29,29.95,29.75,18,4,20,0.01
2013-7-10,98.3,82.7,72.2,72.0,67.0,63.0,88,61,33,29.93,29.79,9,2,14,0.05
2013-7-11,94.2,82.0,71.7,73.0,67.6,64.0,93,64,38,29.93,29.80,12,2,18,0.05
2013-7-12,93.6,82.2,72.9,71.0,65.3,61.0,90,58,34,29.93,29.77,13,3,19,0.29
2013-7-13,99.8,87.2,74.1,68.0,63.6,59.0,81,48,28,29.91,29.74,11,2,18,0.00
2013-7-14,102.5,90.7,78.0,64.0,61.0,57.0,61,39,24,29.85,29.67,15,3,18,0.00
2013-7-15,103.2,87.6,77.0,71.0,62.0,56.0,74,44,21,29.77,29.61,10,2,22,0.00
2013-7-16,88.3,79.3,74.1,69.0,65.0,62.0,73,62,45,29.97,29.78,17,5,28,0.01
2013-7-17,98.2,86.8,75.1,67.0,58.1,52.0,73,40,23,29.98,29.82,17,7,24,0.00
2013-7-18,95.7,85.5,78.5,63.0,57.2,54.0,55,39,25,29.91,29.75,19,9,25,0.00
2013-7-19,96.3,84.7,78.7,64.0,60.7,59.0,54,45,29,29.87,29.72,12,4,17,0.00
2013-7-20,95.5,79.3,72.8,70.0,66.2,63.0,89,66,35,29.84,29.69,9,2,20,0.03
2013-7-21,93.4,82.4,71.5,69.0,65.8,61.0,90,60,36,29.88,29.79,12,3,19,0.00
2013-7-22,95.8,84.0,72.3,68.0,63.8,60.0,82,53,33,29.93,29.81,12,3,20,0.00
2013-7-23,97.6,86.5,73.4,63.0,60.8,58.0,67,44,28,29.93,29.76,12,3,22,0.00
2013-7-24,95.9,84.1,75.9,73.0,64.1,61.0,87,53,34,29.86,29.75,8,2,22,0.01
2013-7-25,94.3,81.5,75.5,72.0,68.2,64.0,86,66,41,29.96,29.85,9,1,10,0.01
2013-7-26,98.2,79.8,71.3,73.0,68.0,63.0,94,70,32,30.04,29.94,12,2,17,0.04
2013-7-27,96.0,82.7,72.3,71.0,67.2,63.0,92,62,35,29.98,29.79,16,1,16,0.24
2013-7-28,101.0,87.3,72.6,69.0,59.2,46.0,85,45,19,29.83,29.70,9,2,14,0.00
2013-7-29,100.6,86.9,72.4,55.0,50.0,46.0,52,30,16,29.92,29.81,8,2,12,0.00
2013-7-30,103.7,90.0,74.5,57.0,53.4,51.0,50,31,17,30.02,29.86,14,3,18,0.00
2013-7-31,103.2,89.5,79.4,62.0,56.7,52.0,49,34,19,29.95,29.83,9,3,19,0.00
2013-8-1,94.3,86.7,79.4,62.0,59.8,57.0,55,41,30,29.90,29.81,11,2,18,0.00
2013-8-2,97.7,84.2,75.6,67.0,63.0,60.0,61,50,34,29.89,29.82,6,1,14,0.00
2013-8-3,102.2,88.3,71.5,62.0,58.4,53.0,72,40,20,29.94,29.80,11,2,16,0.00
2013-8-4,95.6,87.2,78.2,63.0,58.0,53.0,55,38,24,29.93,29.80,8,1,10,0.00
2013-8-5,96.1,82.0,69.7,68.0,59.8,54.0,91,51,25,29.98,29.80,16,4,26,0.12
2013-8-6,88.0,76.7,69.7,69.0,65.3,59.0,93,70,44,29.97,29.90,11,2,17,0.01
2013-8-7,95.7,81.8,67.7,66.0,58.3,49.0,88,50,20,30.00,29.86,11,3,22,0.00
2013-8-8,101.2,85.1,67.8,57.0,47.2,34.0,62,31,11,29.91,29.76,7,2,14,0.00
2013-8-9,103.9,87.6,67.1,46.0,42.1,37.0,42,22,12,29.87,29.75,11,2,19,0.00
2013-8-10,102.2,88.9,72.8,47.0,40.3,34.0,36,19,11,29.93,29.78,8,2,13,0.00
2013-8-11,102.9,87.7,78.6,63.0,55.0,35.0,47,34,20,29.89,29.73,20,4,23,0.00
2013-8-12,103.7,90.3,74.3,60.0,51.2,32.0,55,30,11,29.85,29.72,11,3,18,0.00
2013-8-13,104.4,89.2,70.8,45.0,38.3,34.0,35,18,9,29.91,29.74,9,2,16,0.00
2013-8-14,106.5,89.8,77.1,60.0,50.6,40.0,46,28,15,29.87,29.71,9,3,18,0.00
2013-8-15,105.1,90.6,75.8,59.0,55.0,48.0,54,32,16,29.89,29.74,12,2,14,0.00
2013-8-16,107.9,92.0,76.6,63.0,54.5,44.0,48,30,12,29.88,29.73,13,2,16,0.00
2013-8-17,108.2,92.0,75.3,62.0,55.0,48.0,60,32,14,29.88,29.69,13,2,14,0.00
2013-8-18,106.9,91.2,78.2,67.0,53.3,43.0,68,30,13,29.89,29.76,16,2,23,0.02
2013-8-19,105.3,91.2,77.5,61.0,53.7,46.0,58,30,14,29.89,29.73,10,2,17,0.00
2013-8-20,103.9,86.8,78.7,67.0,59.0,53.0,68,41,19,29.91,29.74,10,2,25,0.02
2013-8-21,98.3,84.8,74.5,63.0,58.8,54.0,65,43,24,29.90,29.78,10,2,16,0.00
2013-8-22,103.0,84.1,72.2,66.0,58.7,53.0,73,45,19,29.90,29.71,17,2,27,0.12
2013-8-23,100.8,83.3,68.1,64.0,59.7,52.0,81,49,22,29.88,29.70,10,2,15,0.00
2013-8-24,93.2,80.3,70.7,69.0,61.5,57.0,90,55,31,29.93,29.79,15,3,23,0.08
2013-8-25,93.0,77.9,71.8,72.0,68.4,63.0,95,75,37,29.95,29.85,10,2,15,0.24
2013-8-26,100.0,79.9,72.1,73.0,69.0,60.0,98,74,27,29.93,29.77,8,1,54,0.21
2013-8-27,99.6,84.6,67.2,69.0,60.1,51.0,96,51,20,29.84,29.71,12,2,16,0.00
2013-8-28,97.5,86.5,77.5,66.0,61.1,58.0,68,44,28,29.90,29.73,14,4,19,0.00
2013-8-29,87.7,78.8,71.2,70.0,67.5,65.0,95,70,49,30.03,29.90,8,1,10,0.24
2013-8-30,90.6,80.2,72.1,71.0,68.4,61.0,95,70,37,30.02,29.90,4,0,6,0.01
2013-8-31,98.5,83.6,70.4,68.0,64.9,61.0,86,56,32,29.95,29.77,12,2,20,0.00
2013-9-1,100.1,86.6,71.3,67.0,62.2,55.0,77,47,27,29.87,29.72,11,2,17,0.00
2013-9-2,98.3,84.9,75.2,65.0,61.1,54.0,63,47,23,29.92,29.72,8,2,15,0.00
2013-9-3,102.1,82.0,73.0,66.0,62.1,57.0,73,53,24,29.90,29.78,19,2,27,0.08
2013-9-4,101.3,86.4,69.0,64.0,55.3,46.0,78,41,18,29.92,29.79,17,4,21,0.00
2013-9-5,102.8,91.4,74.5,54.0,50.0,45.0,47,25,14,29.87,29.75,17,4,18,0.00
2013-9-6,102.4,84.2,70.9,68.0,57.8,51.0,81,43,19,29.91,29.74,13,1,35,0.47
2013-9-7,86.8,78.3,71.9,68.0,63.7,60.0,81,62,41,29.94,29.82,11,2,17,0.00
2013-9-8,86.8,76.5,70.9,70.0,65.3,62.0,91,69,46,29.87,29.74,10,2,16,0.06
2013-9-9,84.0,74.4,68.5,72.0,67.2,65.0,96,79,54,29.81,29.71,5,1,13,0.35
2013-9-10,85.6,74.5,63.9,66.0,62.2,58.0,96,69,41,29.91,29.80,15,2,21,0.32
2013-9-11,92.3,78.1,64.5,64.0,58.9,52.0,91,56,26,29.97,29.82,6,1,9,0.00
2013-9-12,96.4,81.4,65.5,62.0,58.4,51.0,81,49,25,29.87,29.69,13,3,22,0.00
2013-9-13,98.6,85.3,71.8,66.0,59.7,47.0,73,45,18,29.76,29.57,10,3,15,0.00
2013-9-14,100.6,86.1,72.2,64.0,58.2,49.0,71,42,18,29.68,29.57,10,2,17,0.00
2013-9-15,100.2,88.0,77.5,59.0,56.2,51.0,51,35,19,29.74,29.64,18,5,23,0.00
2013-9-16,99.6,89.0,81.1,61.0,58.2,54.0,46,36,22,29.78,29.65,21,8,24,0.00
2013-9-17,102.4,89.7,80.7,60.0,57.4,49.0,48,35,19,29.75,29.58,14,5,24,0.00
2013-9-18,101.0,87.0,72.4,60.0,48.0,40.0,54,29,13,29.72,29.58,8,2,15,0.00
2013-9-19,100.5,84.6,68.8,54.0,47.6,44.0,53,30,15,29.74,29.62,6,2,13,0.00
2013-9-20,101.0,83.9,67.7,55.0,49.7,41.0,49,32,17,29.81,29.67,9,2,15,0.00
2013-9-21,98.9,84.9,70.4,59.0,54.6,49.0,60,38,20,29.81,29.62,11,2,14,0.00
2013-9-22,94.7,82.1,68.2,65.0,53.7,39.0,61,39,23,29.72,29.56,19,4,26,0.00
2013-9-23,91.6,75.5,59.1,43.0,39.1,35.0,49,29,14,29.91,29.72,7,1,11,0.00
2013-9-24,97.6,79.6,58.5,43.0,35.6,26.0,48,23,9,29.96,29.77,6,1,22,0.00
2013-9-25,95.6,78.9,60.5,38.0,28.8,22.0,39,18,8,29.83,29.64,14,3,19,0.00
2013-9-26,93.3,78.9,59.2,54.0,37.5,21.0,49,24,15,29.74,29.62,17,4,21,0.00
2013-9-27,81.1,72.1,60.9,58.0,45.6,30.0,63,40,22,29.95,29.70,11,4,16,0.00
2013-9-28,88.8,71.8,51.7,42.0,35.5,28.0,47,28,17,30.07,29.95,7,1,11,0.00
2013-9-29,91.9,75.4,57.7,42.0,38.3,36.0,49,28,15,30.07,29.92,7,1,10,0.00
2013-9-30,92.5,74.8,55.8,41.0,33.1,23.0,51,25,8,29.98,29.83,8,2,13,0.00
2013-10-1,92.8,75.1,56.0,39.0,33.0,28.0,39,23,11,29.97,29.84,7,1,13,0.00
2013-10-2,91.0,75.6,58.6,46.0,40.8,36.0,50,30,15,29.95,29.80,7,1,11,0.00
2013-10-3,93.1,76.8,60.2,54.0,41.9,24.0,60,32,11,29.86,29.69,11,2,18,0.00
2013-10-4,86.8,73.3,58.9,47.0,39.7,24.0,52,31,18,29.97,29.80,9,2,15,0.00
2013-10-5,84.0,68.5,52.9,26.0,18.8,6.0,32,17,6,30.11,29.97,10,2,15,0.00
2013-10-6,88.7,73.8,51.0,22.0,17.0,12.0,26,13,6,30.12,29.99,13,5,22,0.00
2013-10-7,94.7,77.2,59.6,33.0,25.8,19.0,25,16,9,30.01,29.84,7,1,12,0.00
2013-10-8,89.7,75.3,60.5,35.0,29.7,26.0,34,20,12,29.89,29.75,14,2,16,0.00
2013-10-9,87.5,74.2,56.3,45.0,35.8,27.0,38,26,14,29.79,29.67,17,5,22,0.00
2013-10-10,71.7,64.4,57.1,50.0,44.5,40.0,64,50,35,29.95,29.72,11,4,20,0.00
2013-10-11,78.0,62.3,46.8,44.0,39.8,34.0,78,47,21,30.04,29.93,10,2,12,0.00
2013-10-12,86.6,67.6,48.2,39.0,35.2,31.0,60,34,14,30.00,29.86,9,1,14,0.00
2013-10-13,88.7,72.4,53.5,46.0,38.3,34.0,51,31,16,29.99,29.85,11,3,20,0.00
2013-10-14,83.9,69.0,54.2,45.0,38.0,33.0,64,35,19,30.02,29.90,8,1,11,0.00
2013-10-15,84.2,67.6,51.8,47.0,32.7,26.0,50,30,15,29.97,29.84,11,2,16,0.00
2013-10-16,80.5,64.2,48.7,30.0,18.9,3.0,41,21,5,30.08,29.98,6,2,10,0.00
2013-10-17,81.5,63.0,44.2,23.0,17.7,8.0,37,19,6,30.10,29.93,7,1,10,0.00
2013-10-18,82.9,64.4,45.2,25.0,22.2,19.0,39,22,11,30.05,29.95,7,2,11,0.00
2013-10-19,86.9,66.5,45.8,25.0,18.0,6.0,40,19,5,30.08,29.94,10,2,13,0.00
2013-10-20,85.1,65.8,48.7,21.0,15.5,10.0,30,16,6,30.00,29.86,12,2,15,0.00
2013-10-21,86.3,66.9,49.8,22.0,15.5,10.0,27,15,6,30.02,29.94,9,2,13,0.00
2013-10-22,91.5,71.9,49.2,25.0,17.7,6.0,30,15,4,30.07,29.91,14,4,18,0.00
2013-10-23,93.2,78.0,64.0,29.0,25.7,20.0,24,15,7,29.92,29.79,13,3,19,0.00
2013-10-24,92.5,74.5,56.3,32.0,26.5,23.0,31,18,9,29.98,29.83,10,2,18,0.00
2013-10-25,86.6,69.5,51.1,31.0,26.8,23.0,38,22,10,30.06,29.97,8,2,12,0.00
2013-10-26,89.3,70.2,49.3,31.0,26.1,19.0,44,22,8,30.13,29.99,10,1,18,0.00
2013-10-27,90.4,73.5,60.0,34.0,26.7,19.0,31,19,8,30.00,29.74,8,2,14,0.00
2013-10-28,81.5,70.0,58.8,36.0,31.2,23.0,39,25,12,29.91,29.80,13,3,20,0.00
2013-10-29,82.5,68.8,54.8,39.0,34.1,28.0,54,30,14,29.93,29.80,16,3,24,0.00
2013-10-30,70.7,57.1,45.3,41.0,34.0,27.0,68,44,23,30.09,29.89,12,2,17,0.00
2013-10-31,74.7,56.9,40.8,30.0,25.2,12.0,56,33,9,30.19,30.05,9,1,11,0.00
2013-11-1,79.8,59.9,38.9,26.0,23.1,21.0,51,27,12,30.22,30.05,7,2,9,0.00
2013-11-2,87.4,73.2,49.5,52.0,17.9,7.0,75,15,5,30.09,29.84,14,5,21,0.02
2013-11-3,81.8,66.7,55.5,55.0,47.3,40.0,87,54,24,29.94,29.74,9,2,15,0.05
2013-11-4,80.9,66.0,49.8,52.0,44.4,41.0,72,49,25,29.85,29.70,14,3,18,0.00
2013-11-5,71.9,60.6,50.5,46.0,42.0,35.0,76,53,26,30.15,29.83,8,2,13,0.00
2013-11-6,76.4,62.5,46.3,42.0,21.8,-4.0,79,29,5,30.29,30.16,12,4,18,0.00
2013-11-7,80.7,70.0,61.2,27.0,15.9,-3.0,21,13,7,30.21,30.04,21,9,26,0.00
2013-11-8,83.5,67.0,51.8,35.0,31.3,26.0,44,28,16,30.09,29.94,8,1,11,0.00
2013-11-9,83.9,66.1,47.1,38.0,34.5,31.0,57,33,17,30.13,30.02,7,1,10,0.00
2013-11-10,88.4,67.9,49.5,37.0,34.5,33.0,55,32,14,30.15,29.99,6,1,12,0.00
2013-11-11,88.3,70.2,48.5,41.0,35.4,33.0,57,31,16,30.09,29.97,10,2,14,0.00
2013-11-12,84.3,74.7,66.0,44.0,37.4,28.0,39,27,18,30.15,30.05,25,11,32,0.00
2013-11-13,77.1,67.8,62.5,43.0,42.0,40.0,47,40,29,30.13,29.98,27,11,37,0.00
2013-11-14,82.4,67.5,54.4,45.0,39.7,33.0,61,38,19,30.03,29.86,14,3,18,0.00
2013-11-15,76.0,65.7,54.6,51.0,44.1,33.0,61,46,35,29.86,29.66,11,3,20,0.00
2013-11-16,77.0,65.9,56.9,51.0,44.5,34.0,70,49,21,29.91,29.72,10,3,16,0.00
2013-11-17,76.2,63.9,51.6,48.0,44.8,42.0,77,52,31,30.07,29.91,7,1,8,0.00
2013-11-18,81.0,64.6,50.0,47.0,43.4,40.0,74,49,24,30.11,29.97,7,1,11,0.00
2013-11-19,80.4,63.1,48.1,44.0,39.5,28.0,75,46,15,30.03,29.86,6,1,11,0.00
2013-11-20,76.1,62.9,49.0,42.0,39.3,35.0,67,44,24,29.93,29.82,9,2,15,0.00
2013-11-21,74.0,63.8,53.7,52.0,42.5,38.0,77,48,29,29.96,29.86,8,1,9,0.00
2013-11-22,65.5,56.3,47.4,56.0,50.2,46.0,96,82,54,30.00,29.81,7,2,12,0.34
2013-11-23,51.8,48.2,46.2,48.0,45.2,43.0,97,89,74,30.15,29.99,15,5,24,1.02
2013-11-24,60.7,51.2,45.8,44.0,40.9,38.0,83,69,46,30.22,30.13,12,4,21,0.00
2013-11-25,61.1,48.4,37.1,43.0,39.3,35.0,93,73,46,30.30,30.19,8,1,9,0.00
2013-11-26,64.5,54.9,40.7,40.0,32.4,25.0,92,46,27,30.34,30.21,18,8,28,0.00
2013-11-27,61.1,55.5,52.3,26.0,23.8,22.0,36,29,24,30.21,30.06,27,11,33,0.00
2013-11-28,74.8,59.2,45.8,37.0,30.5,24.0,61,36,21,30.14,30.03,14,2,18,0.00
2013-11-29,76.6,58.7,42.6,44.0,40.1,36.0,80,54,26,30.22,30.09,5,1,7,0.00
2013-11-30,72.5,57.2,44.3,47.0,44.3,41.0,89,65,37,30.21,30.09,3,0,5,0.00
2013-12-1,72.4,57.2,48.3,47.0,45.3,43.0,88,68,36,30.26,30.14,5,1,8,0.00
2013-12-2,73.1,55.7,40.8,44.0,38.7,29.0,91,59,20,30.20,29.97,4,1,7,0.00
2013-12-3,75.9,58.5,41.8,42.0,35.3,15.0,82,48,11,29.98,29.77,5,1,11,0.00
2013-12-4,68.4,58.8,45.9,47.0,41.4,33.0,92,55,28,29.94,29.78,19,4,24,0.02
2013-12-5,50.5,44.5,36.1,45.0,37.0,29.0,95,76,52,30.19,29.90,8,2,14,0.39
2013-12-6,55.1,41.1,29.7,30.0,26.9,22.0,87,61,30,30.30,30.18,5,1,8,0.00
2013-12-7,59.9,44.2,29.7,32.0,26.3,19.0,88,55,21,30.20,30.08,9,2,12,0.00
2013-12-8,56.4,48.1,40.4,40.0,36.8,30.0,78,66,49,30.19,30.08,7,1,9,0.00
2013-12-9,53.1,42.4,31.5,34.0,24.9,20.0,75,53,27,30.39,30.15,7,1,10,0.00
2013-12-10,61.1,45.1,28.9,26.0,22.7,15.0,82,47,18,30.38,30.20,12,2,18,0.00
2013-12-11,73.7,56.0,36.2,41.0,32.1,25.0,68,43,28,30.28,30.17,14,4,21,0.00
2013-12-12,74.8,61.4,47.1,43.0,34.6,29.0,62,38,29,30.20,30.02,15,5,22,0.00
2013-12-13,63.6,49.5,36.7,35.0,32.4,29.0,80,55,31,30.25,30.12,6,1,7,0.00
2013-12-14,66.4,50.4,34.6,33.0,28.9,22.0,82,49,20,30.37,30.25,8,2,16,0.00
2013-12-15,69.9,55.8,42.7,31.0,26.2,22.0,56,34,18,30.35,30.20,15,3,18,0.00
2013-12-16,78.8,57.0,39.3,32.0,28.6,24.0,64,39,13,30.29,30.18,6,1,8,0.00
2013-12-17,82.8,62.5,43.3,32.0,25.2,18.0,53,29,10,30.27,30.10,13,2,16,0.00
2013-12-18,80.7,62.8,49.9,31.0,26.6,19.0,44,27,10,30.11,29.87,3,1,6,0.00
2013-12-19,70.8,58.1,45.8,32.0,27.5,21.0,52,33,15,29.89,29.72,14,3,20,0.00
2013-12-20,54.0,47.6,43.3,45.0,39.1,29.0,94,74,40,29.91,29.66,11,2,14,0.33
2013-12-21,53.3,46.8,42.2,44.0,39.8,36.0,95,78,55,30.14,29.90,12,2,19,0.10
2013-12-22,60.1,47.2,37.0,42.0,37.9,35.0,94,73,42,30.36,30.14,5,1,8,0.00
2013-12-23,65.4,50.6,33.9,38.0,29.4,21.0,93,52,19,30.43,30.31,15,4,22,0.00
2013-12-24,72.0,55.9,40.7,34.0,26.5,18.0,60,35,18,30.30,30.15,13,3,22,0.00
2013-12-25,67.7,53.2,36.2,36.0,29.0,22.0,80,45,22,30.32,30.20,20,5,28,0.00
2013-12-26,64.4,56.8,51.0,26.0,22.0,17.0,34,26,20,30.27,30.13,26,10,31,0.00
2013-12-27,66.3,58.2,47.3,22.0,18.5,13.0,36,22,16,30.25,30.14,29,8,29,0.00
2013-12-28,65.7,52.4,38.6,30.0,23.5,16.0,53,34,20,30.18,30.00,13,2,18,0.00
2013-12-29,66.9,52.0,37.7,32.0,29.5,26.0,68,44,23,30.21,30.02,9,1,11,0.00
2013-12-30,67.1,49.7,33.6,33.0,29.1,26.0,82,50,21,30.34,30.20,7,1,10,0.00
2013-12-31,75.1,53.8,35.3,29.0,25.0,17.0,70,38,11,30.32,30.14,5,1,6,0.00
2014-1-1,72.1,52.6,36.9,31.0,27.4,24.0,68,42,17,30.22,30.12,5,1,7,0.00
2014-1-2,74.2,60.0,37.7,31.0,25.4,22.0,72,31,14,30.23,30.09,15,5,22,0.00